createdAt,value
2022-09-29T00:00:30.300Z,98340.90
2022-09-29T00:05:53.555Z,98336.04
2022-09-29T00:10:56.399Z,98337.85
2022-09-29T00:15:59.711Z,98330.84
2022-09-29T00:21:02.256Z,98328.38
2022-09-29T00:26:08.933Z,98323.60
2022-09-29T00:31:12.351Z,98327.77
2022-09-29T00:36:15.858Z,98332.84
2022-09-29T00:41:19.752Z,98339.52
2022-09-29T00:46:27.629Z,98335.44
2022-09-29T00:51:30.347Z,98330.86
2022-09-29T00:56:33.508Z,98332.29
2022-09-29T01:01:36.136Z,98331.65
2022-09-29T01:06:42.409Z,98335.36
2022-09-29T01:11:45.472Z,98336.52
2022-09-29T01:16:48.523Z,98337.78
2022-09-29T01:21:54.042Z,98331.13
2022-09-29T01:26:57.528Z,98329.06
2022-09-29T01:32:05.449Z,98332.69
2022-09-29T01:37:10.898Z,98334.91
2022-09-29T01:42:19.021Z,98338.39
2022-09-29T01:47:24.357Z,98345.20
2022-09-29T01:52:30.179Z,98346.17
2022-09-29T01:57:35.494Z,98350.31
2022-09-29T02:02:44.101Z,98351.26
2022-09-29T02:07:47.470Z,98347.70
2022-09-29T02:12:53.439Z,98352.31
2022-09-29T02:17:59.338Z,98356.42
2022-09-29T02:23:01.958Z,98361.02
2022-09-29T02:28:04.941Z,98361.52
2022-09-29T02:33:13.045Z,98363.63
2022-09-29T02:38:23.092Z,98365.77
2022-09-29T02:43:26.503Z,98371.69
2022-09-29T02:48:28.935Z,98381.27
2022-09-29T02:53:34.295Z,98388.35
2022-09-29T02:58:47.556Z,98394.79
2022-09-29T03:03:50.931Z,98395.70
2022-09-29T03:08:53.546Z,98400.60
2022-09-29T03:13:56.265Z,98404.59
2022-09-29T03:18:58.799Z,98416.42
2022-09-29T03:24:01.971Z,98414.91
2022-09-29T03:29:04.430Z,98417.64
2022-09-29T03:34:06.931Z,98424.02
2022-09-29T03:39:09.423Z,98424.78
2022-09-29T03:44:11.867Z,98424.73
2022-09-29T03:49:17.016Z,98425.87
2022-09-29T03:54:19.494Z,98433.80
2022-09-29T03:59:22.523Z,98433.73
2022-09-29T04:04:25.307Z,98433.83
2022-09-29T04:09:27.758Z,98434.41
2022-09-29T04:14:30.202Z,98440.15
2022-09-29T04:19:32.725Z,98445.79
2022-09-29T04:24:35.253Z,98445.86
2022-09-29T04:29:37.871Z,98451.66
2022-09-29T04:34:40.327Z,98457.30
2022-09-29T04:39:43.154Z,98455.35
2022-09-29T04:44:45.668Z,98464.85
2022-09-29T04:49:48.162Z,98467.32
2022-09-29T04:54:50.608Z,98473.73
2022-09-29T04:59:53.106Z,98477.38
2022-09-29T05:04:55.693Z,98477.41
2022-09-29T05:09:58.124Z,98472.27
2022-09-29T05:15:00.582Z,98480.00
2022-09-29T05:20:03.660Z,98485.00
2022-09-29T05:25:06.455Z,98489.85
2022-09-29T05:30:09.232Z,98491.86
2022-09-29T05:35:11.772Z,98497.73
2022-09-29T05:40:14.350Z,98500.34
2022-09-29T05:45:16.973Z,98504.85
2022-09-29T05:50:22.213Z,98509.25
2022-09-29T05:55:24.699Z,98515.86
2022-09-29T06:00:27.960Z,98519.08
2022-09-29T06:05:30.462Z,98526.49
2022-09-29T06:10:33.801Z,98529.55
2022-09-29T06:15:37.012Z,98533.89
2022-09-29T06:20:39.574Z,98541.56
2022-09-29T06:25:42.093Z,98546.50
2022-09-29T06:30:44.607Z,98557.13
2022-09-29T06:35:50.944Z,98559.27
2022-09-29T06:40:53.726Z,98559.23
2022-09-29T06:45:56.481Z,98562.02
2022-09-29T06:51:09.165Z,98564.45
2022-09-29T06:56:12.552Z,98571.55
2022-09-29T07:01:15.314Z,98572.39
2022-09-29T07:06:20.113Z,98577.95
2022-09-29T07:11:23.368Z,98583.99
2022-09-29T07:16:26.026Z,98585.59
2022-09-29T07:21:28.533Z,98596.20
2022-09-29T07:26:31.117Z,98602.18
2022-09-29T07:31:46.133Z,98604.03
2022-09-29T07:36:51.973Z,98611.08
2022-09-29T07:41:55.100Z,98618.79
2022-09-29T07:46:57.545Z,98621.01
2022-09-29T07:52:00.285Z,98624.94
2022-09-29T07:57:03.855Z,98634.28
2022-09-29T08:02:07.891Z,98638.40
2022-09-29T08:07:10.820Z,98641.83
2022-09-29T08:12:13.386Z,98641.91
2022-09-29T08:17:15.801Z,98638.45
2022-09-29T08:22:18.295Z,98648.71
2022-09-29T08:27:20.918Z,98655.41
2022-09-29T08:32:23.832Z,98666.29
2022-09-29T08:37:30.038Z,98673.50
2022-09-29T08:42:46.019Z,98675.70
2022-09-29T08:47:51.765Z,98683.29
2022-09-29T08:52:58.275Z,98689.29
2022-09-29T08:58:06.792Z,98692.08
2022-09-29T09:03:22.294Z,98689.52
2022-09-29T09:08:44.643Z,98699.10
2022-09-29T09:13:51.522Z,98710.73
2022-09-29T09:24:04.710Z,98717.63
2022-09-29T09:29:13.979Z,98727.23
2022-09-29T09:34:25.106Z,98727.42
2022-09-29T09:39:34.463Z,98736.90
2022-09-29T09:44:40.643Z,98734.39
2022-09-29T09:49:45.828Z,98747.09
2022-09-29T09:54:52.187Z,98750.27
2022-09-29T09:59:58.053Z,98753.35
2022-09-29T10:05:00.698Z,98755.27
2022-09-29T10:10:05.876Z,98761.83
2022-09-29T10:15:11.510Z,98768.95
2022-09-29T10:20:28.145Z,98772.28
2022-09-29T10:25:30.608Z,98778.54
2022-09-29T10:30:34.344Z,98785.80
2022-09-29T10:35:38.488Z,98795.06
2022-09-29T10:40:45.113Z,98799.23
2022-09-29T10:45:49.181Z,98802.44
2022-09-29T10:50:54.639Z,98809.05
2022-09-29T10:55:57.423Z,98815.70
2022-09-29T11:01:07.319Z,98824.86
2022-09-29T11:06:13.554Z,98833.36
2022-09-29T11:11:19.357Z,98834.58
2022-09-29T11:16:26.372Z,98838.32
2022-09-29T11:21:31.996Z,98844.80
2022-09-29T11:26:43.831Z,98843.46
2022-09-29T11:31:54.737Z,98851.65
2022-09-29T11:42:03.957Z,98857.11
2022-09-29T11:47:06.505Z,98861.99
2022-09-29T11:52:18.922Z,98868.88
2022-09-29T11:57:21.839Z,98878.51
2022-09-29T12:02:27.357Z,98878.75
2022-09-29T12:07:29.862Z,98880.60
2022-09-29T12:12:34.758Z,98887.64
2022-09-29T12:17:40.349Z,98888.71
2022-09-29T12:22:44.924Z,98897.20
2022-09-29T12:27:48.435Z,98899.20
2022-09-29T12:32:53.947Z,98907.55
2022-09-29T12:38:07.373Z,98905.20
2022-09-29T12:43:12.823Z,98909.82
2022-09-29T12:48:18.910Z,98923.31
2022-09-29T12:53:24.284Z,98928.86
2022-09-29T12:58:33.975Z,98938.16
2022-09-29T13:03:39.945Z,98936.04
2022-09-29T13:08:44.432Z,98941.84
2022-09-29T13:13:50.079Z,98943.29
2022-09-29T13:19:00.095Z,98939.70
2022-09-29T13:24:12.278Z,98945.06
2022-09-29T13:29:18.620Z,98945.39
2022-09-29T13:34:24.589Z,98949.98
2022-09-29T13:39:28.038Z,98954.91
2022-09-29T13:44:30.494Z,98954.10
2022-09-29T13:49:33.023Z,98959.68
2022-09-29T13:54:36.430Z,98966.33
2022-09-29T13:59:41.154Z,98975.18
2022-09-29T14:04:46.158Z,98977.02
2022-09-29T14:09:49.998Z,98975.54
2022-09-29T14:14:55.860Z,98975.42
2022-09-29T14:20:01.316Z,98985.16
2022-09-29T14:25:06.682Z,98992.21
2022-09-29T14:30:09.093Z,98997.64
2022-09-29T14:35:14.871Z,99003.80
2022-09-29T14:40:21.926Z,99008.20
2022-09-29T14:45:27.355Z,99014.94
2022-09-29T14:50:33.686Z,99014.94
2022-09-29T14:55:39.610Z,99017.16
2022-09-29T15:00:42.002Z,99019.59
2022-09-29T15:05:44.485Z,99027.64
2022-09-29T15:10:47.044Z,99028.21
2022-09-29T15:15:50.181Z,99032.45
2022-09-29T15:20:55.688Z,99037.84
2022-09-29T15:26:00.274Z,99045.52
2022-09-29T15:31:04.506Z,99047.50
2022-09-29T15:36:17.207Z,99059.42
2022-09-29T15:41:27.353Z,99062.23
2022-09-29T15:46:32.752Z,99075.64
2022-09-29T15:51:36.064Z,99087.17
2022-09-29T15:56:58.628Z,99097.36
2022-09-29T16:02:06.238Z,99098.50
2022-09-29T16:07:19.005Z,99100.86
2022-09-29T16:12:21.563Z,99101.17
2022-09-29T16:17:24.963Z,99101.09
2022-09-29T16:22:28.042Z,99101.63
2022-09-29T16:27:33.406Z,99102.89
2022-09-29T16:32:42.255Z,99104.33
2022-09-29T16:37:45.466Z,99111.48
2022-09-29T16:42:52.760Z,99112.84
2022-09-29T16:47:55.275Z,99111.92
2022-09-29T16:52:57.798Z,99123.02
2022-09-29T16:58:02.509Z,99128.03
2022-09-29T17:03:05.835Z,99129.60
2022-09-29T17:08:14.784Z,99125.60
2022-09-29T17:13:17.381Z,99128.42
2022-09-29T17:18:20.621Z,99135.33
2022-09-29T17:23:23.231Z,99137.48
2022-09-29T17:28:25.724Z,99136.73
2022-09-29T17:33:28.214Z,99140.09
2022-09-29T17:38:31.645Z,99146.96
2022-09-29T17:43:34.114Z,99148.52
2022-09-29T17:48:36.773Z,99152.84
2022-09-29T17:53:39.813Z,99160.56
2022-09-29T17:58:42.353Z,99157.52
2022-09-29T18:03:44.909Z,99165.34
